createdAt,value
2022-07-29T00:00:00.319Z,0
2022-07-29T00:05:00.261Z,0
2022-07-29T00:10:00.199Z,0
2022-07-29T00:15:00.209Z,0
2022-07-29T00:20:00.187Z,0
2022-07-29T00:25:00.196Z,0
2022-07-29T00:30:00.184Z,0
2022-07-29T00:35:00.159Z,0
2022-07-29T00:40:00.206Z,0
2022-07-29T00:45:00.184Z,0
2022-07-29T00:50:00.235Z,0
2022-07-29T01:00:00.262Z,0
2022-07-29T01:05:00.180Z,0
2022-07-29T01:10:00.211Z,0
2022-07-29T01:15:00.223Z,0
2022-07-29T01:20:00.209Z,0
2022-07-29T01:25:00.170Z,0
2022-07-29T01:30:00.209Z,0
2022-07-29T01:35:00.174Z,0
2022-07-29T01:40:00.288Z,0
2022-07-29T01:45:00.227Z,0
2022-07-29T01:50:00.212Z,0
2022-07-29T01:55:00.199Z,0
2022-07-29T02:00:00.231Z,0
2022-07-29T02:05:00.261Z,0
2022-07-29T02:10:00.209Z,0
2022-07-29T02:15:00.188Z,0
2022-07-29T02:20:00.267Z,0
2022-07-29T02:25:00.975Z,0
2022-07-29T02:30:00.204Z,0
2022-07-29T02:35:00.176Z,0
2022-07-29T02:40:00.193Z,0
2022-07-29T02:45:00.194Z,0
2022-07-29T02:50:00.430Z,0
2022-07-29T02:55:00.191Z,0
2022-07-29T03:00:00.276Z,0
2022-07-29T03:05:00.283Z,0
2022-07-29T03:10:00.186Z,0
2022-07-29T03:15:00.188Z,0
2022-07-29T03:20:00.210Z,0
2022-07-29T03:25:00.178Z,0
2022-07-29T03:30:00.193Z,0
2022-07-29T03:35:00.177Z,0
2022-07-29T03:40:00.173Z,10
2022-07-29T03:45:00.195Z,10
2022-07-29T03:50:00.195Z,17
2022-07-29T03:55:00.174Z,24
2022-07-29T04:00:00.232Z,31
2022-07-29T04:05:00.174Z,45
2022-07-29T04:10:00.186Z,63
2022-07-29T04:15:00.189Z,75
2022-07-29T04:20:00.197Z,105
2022-07-29T04:25:03.690Z,105
2022-07-29T04:30:00.193Z,124
2022-07-29T04:35:00.181Z,124
2022-07-29T04:40:00.235Z,173
2022-07-29T04:45:01.316Z,161
2022-07-29T04:50:00.175Z,266
2022-07-29T04:55:00.202Z,371
2022-07-29T05:00:00.217Z,565
2022-07-29T05:05:00.193Z,719
2022-07-29T05:10:00.206Z,810
2022-07-29T05:15:00.170Z,810
2022-07-29T05:20:00.188Z,912
2022-07-29T05:25:03.221Z,1026
2022-07-29T05:30:00.181Z,1154
2022-07-29T05:35:00.199Z,1460
2022-07-29T05:40:00.192Z,1861
2022-07-29T05:45:00.215Z,2095
2022-07-29T05:50:00.199Z,2651
2022-07-29T05:55:00.187Z,2651
2022-07-29T06:00:00.286Z,2980
2022-07-29T06:05:00.273Z,2980
2022-07-29T06:10:00.198Z,3353
2022-07-29T06:15:00.159Z,3353
2022-07-29T06:20:00.242Z,3353
2022-07-29T06:25:00.185Z,3769
2022-07-29T06:30:00.195Z,3769
2022-07-29T06:35:24.418Z,4236
2022-07-29T06:40:00.199Z,4236
2022-07-29T06:45:00.187Z,4771
2022-07-29T06:50:00.196Z,4771
2022-07-29T06:55:00.193Z,4771
2022-07-29T07:00:00.237Z,4771
2022-07-29T07:05:00.191Z,5362
2022-07-29T07:10:00.208Z,6024
2022-07-29T07:15:00.188Z,6772
2022-07-29T07:20:00.188Z,6772
2022-07-29T07:25:00.211Z,7610
2022-07-29T07:30:00.194Z,7634
2022-07-29T07:35:00.207Z,7634
2022-07-29T07:40:00.229Z,8568
2022-07-29T07:45:13.016Z,8568
2022-07-29T07:50:00.207Z,9634
2022-07-29T07:55:00.184Z,9634
2022-07-29T08:00:00.214Z,9634
2022-07-29T08:05:00.193Z,9634
2022-07-29T08:10:00.179Z,9634
2022-07-29T08:15:00.193Z,9634
2022-07-29T08:20:00.211Z,10053
2022-07-29T08:25:00.205Z,9680
2022-07-29T08:30:00.212Z,9680
2022-07-29T08:35:00.187Z,9680
2022-07-29T08:40:00.181Z,9680
2022-07-29T08:45:00.184Z,9680
2022-07-29T08:50:00.197Z,9680
2022-07-29T08:55:00.182Z,11298
2022-07-29T09:00:04.844Z,15350
2022-07-29T09:05:00.199Z,19077
2022-07-29T09:10:00.185Z,15004
2022-07-29T09:15:00.198Z,15004
2022-07-29T09:20:00.226Z,14781
2022-07-29T09:25:00.183Z,10797
2022-07-29T09:30:00.264Z,10797
2022-07-29T09:35:00.197Z,10797
2022-07-29T09:40:00.186Z,10797
2022-07-29T09:45:00.187Z,10797
2022-07-29T09:50:00.508Z,13633
2022-07-29T09:55:00.217Z,13633
2022-07-29T10:00:00.218Z,12134
2022-07-29T10:05:00.192Z,10797
2022-07-29T10:10:00.200Z,9789
2022-07-29T10:15:00.169Z,9789
2022-07-29T10:20:00.196Z,9789
2022-07-29T10:25:00.194Z,9789
2022-07-29T10:30:00.187Z,9789
2022-07-29T10:35:00.176Z,9789
2022-07-29T10:40:00.194Z,15339
2022-07-29T10:45:00.185Z,17294
2022-07-29T10:50:01.283Z,21918
2022-07-29T10:55:00.217Z,27797
2022-07-29T11:00:00.200Z,27913
2022-07-29T11:05:00.219Z,28029
2022-07-29T11:10:00.190Z,24820
2022-07-29T11:15:00.455Z,32270
2022-07-29T11:20:00.203Z,25751
2022-07-29T11:25:00.190Z,22851
2022-07-29T11:30:01.163Z,22851
2022-07-29T11:35:00.195Z,25900
2022-07-29T11:40:02.292Z,68438
2022-07-29T11:45:04.373Z,68438
2022-07-29T11:50:00.199Z,68438
2022-07-29T11:55:00.791Z,68438
2022-07-29T12:00:04.602Z,64646
2022-07-29T12:05:00.166Z,60548
2022-07-29T12:10:00.194Z,60548
2022-07-29T12:15:00.190Z,60548
2022-07-29T12:20:00.195Z,60548
2022-07-29T12:25:11.428Z,60548
2022-07-29T12:30:00.211Z,60548
2022-07-29T12:35:00.200Z,60548
2022-07-29T12:40:00.195Z,60548
2022-07-29T12:45:00.181Z,60548
2022-07-29T12:50:00.208Z,68030
2022-07-29T12:55:00.196Z,64728
2022-07-29T13:00:00.211Z,44740
2022-07-29T13:05:00.160Z,30669
2022-07-29T13:10:00.198Z,67004
2022-07-29T13:15:00.206Z,67004
2022-07-29T13:20:00.167Z,67004
2022-07-29T13:25:00.189Z,52979
2022-07-29T13:30:00.202Z,33443
2022-07-29T13:35:00.191Z,37342
2022-07-29T13:40:00.268Z,30683
2022-07-29T13:45:00.213Z,28688
2022-07-29T13:50:00.231Z,26879
2022-07-29T13:55:00.185Z,34938
2022-07-29T14:00:00.223Z,30974
2022-07-29T14:05:03.771Z,30931
2022-07-29T14:10:00.189Z,30360
2022-07-29T14:15:00.192Z,32188
2022-07-29T14:20:00.200Z,27454
2022-07-29T14:25:09.996Z,54388
2022-07-29T14:30:00.203Z,53901
2022-07-29T14:35:00.194Z,53901
2022-07-29T14:40:00.203Z,46892
2022-07-29T14:45:00.188Z,46082
2022-07-29T14:50:00.212Z,46082
2022-07-29T14:55:00.176Z,46082
2022-07-29T15:00:00.269Z,46082
2022-07-29T15:05:00.181Z,46082
2022-07-29T15:10:00.196Z,41735
2022-07-29T15:15:00.184Z,41735
2022-07-29T15:20:00.198Z,41735
2022-07-29T15:25:00.179Z,37136
2022-07-29T15:30:00.184Z,37136
2022-07-29T15:35:00.207Z,37136
2022-07-29T15:40:00.441Z,31741
2022-07-29T15:45:00.243Z,31741
2022-07-29T15:50:00.207Z,29383
2022-07-29T15:55:00.199Z,25427
2022-07-29T16:00:00.213Z,25427
2022-07-29T16:05:00.188Z,9579
2022-07-29T16:10:00.201Z,22709
2022-07-29T16:15:00.381Z,11138
2022-07-29T16:20:00.191Z,8158
2022-07-29T16:25:00.208Z,7374
